Date,TemperatureHighF,TemperatureAvgF,TemperatureLowF,DewpointHighF,DewpointAvgF,DewpointLowF,HumidityHigh,HumidityAvg,HumidityLow,PressureMaxIn,PressureMinIn,WindSpeedMaxMPH,WindSpeedAvgMPH,GustSpeedMaxMPH,PrecipitationSumIn
2013-1-3,74.1,45.2,28.9,16.3,4.0,-7.2,39,20,11,30.00,30.00,4,4,13,0.00
2013-1-4,32.7,27.6,0.0,9.5,6.8,5.0,42,37,32,30.00,29.82,8,5,17,0.00
2013-1-5,38.8,33.2,29.8,18.5,12.9,9.1,54,43,30,30.24,30.00,7,4,15,0.00
2013-1-6,37.9,34.9,28.6,24.8,19.3,9.5,65,53,44,30.12,29.85,7,4,13,0.00
2013-1-7,34.5,28.6,21.7,14.5,8.9,3.9,50,43,34,30.36,30.12,8,4,17,0.00
2013-1-8,38.8,34.2,31.5,20.1,13.5,8.8,58,43,29,30.30,30.09,9,3,18,0.00
2013-1-9,43.7,38.3,30.4,28.0,16.2,4.6,72,44,23,30.33,29.94,9,3,17,0.00
2013-1-10,46.8,39.1,36.1,16.9,9.5,2.7,42,30,17,30.56,30.36,4,1,10,0.00
2013-1-11,44.8,40.3,37.4,39.6,28.2,16.9,82,63,42,30.39,29.88,4,2,9,0.00
2013-1-12,55.4,47.6,42.3,46.0,39.1,33.1,88,74,46,30.03,29.91,4,1,9,0.00
2013-1-13,56.8,49.6,44.6,54.3,42.3,35.6,92,76,55,30.00,29.76,5,1,8,0.00
2013-1-14,44.2,33.4,28.4,36.5,11.0,0.7,77,41,28,30.39,29.85,3,1,9,0.00
2013-1-15,37.0,30.1,24.4,6.8,0.1,-7.4,45,29,17,30.44,30.21,4,0,8,0.00
2013-1-16,38.8,33.3,27.7,8.2,3.4,-2.0,35,28,19,30.21,29.76,7,2,14,0.00
2013-1-17,35.4,24.0,14.2,9.5,-6.3,-15.0,41,26,18,30.24,29.85,4,1,13,0.00
2013-1-18,33.4,22.2,12.4,15.4,-18.0,-99.9,60,26,18,30.39,30.00,9,3,17,0.00
2013-1-19,45.0,39.9,33.4,20.5,12.2,7.0,40,32,28,29.97,29.53,11,7,20,0.00
2013-1-20,45.5,29.1,18.1,20.5,1.8,-11.0,55,31,18,30.09,29.44,10,4,19,0.00
2013-1-21,25.7,19.3,12.2,-3.6,-19.6,-99.9,38,23,19,30.09,29.85,4,2,9,0.00
2013-1-22,16.3,10.5,6.3,-8.1,-86.5,-99.9,34,4,23,30.21,29.88,4,1,13,0.00
2013-1-23,17.1,9.2,-0.6,-10.5,-83.0,-99.9,31,5,23,30.21,30.09,2,0,9,0.00
2013-1-24,17.2,11.5,5.5,-15.9,-77.9,-99.9,21,6,21,30.53,30.06,3,1,9,0.00
2013-1-25,21.2,15.1,8.2,1.2,-42.3,-99.9,45,24,34,30.47,30.09,0,0,4,0.00
2013-1-26,29.8,20.6,12.0,1.9,-18.6,-99.9,45,29,23,30.41,30.09,4,0,8,0.00
2013-1-27,34.0,23.2,11.8,5.5,-16.4,-99.9,44,28,22,30.62,30.36,3,1,8,0.00
2013-1-28,36.9,33.7,29.5,32.2,22.6,3.0,83,66,31,30.33,29.82,4,1,8,0.00
2013-1-29,42.1,36.2,33.6,40.5,33.3,29.7,94,89,83,30.06,29.71,4,2,8,0.00
2013-1-30,54.0,48.5,42.3,50.5,44.4,40.6,95,86,73,29.71,29.09,6,3,15,0.00
2013-1-31,46.6,28.5,21.2,42.3,8.1,-8.0,85,43,25,29.71,29.09,7,4,19,0.00
2013-2-1,24.6,19.5,14.7,-1.5,-8.0,-16.1,43,29,19,30.18,29.71,4,2,11,0.00
2013-2-2,25.5,19.4,14.0,-1.5,-6.7,-99.9,38,31,24,30.15,29.94,7,3,13,0.00
2013-2-3,28.8,18.8,11.1,0.7,-38.9,-99.9,44,18,18,29.97,29.79,4,1,8,0.00
2013-2-4,24.3,19.2,11.8,0.5,-16.4,-99.9,43,28,22,29.97,29.88,3,1,8,0.00
2013-2-5,26.1,19.4,9.7,3.4,-36.2,-99.9,41,21,27,29.97,29.82,6,2,11,0.00
2013-2-6,31.1,24.4,17.6,10.2,-5.8,-16.4,50,27,18,30.41,29.85,4,1,10,0.00
2013-2-7,30.4,24.0,18.7,15.6,5.0,-10.3,71,46,25,30.39,30.12,6,4,12,0.00
2013-2-8,22.3,19.4,16.0,13.3,8.9,3.0,68,63,56,30.18,29.91,4,2,10,0.00
2013-2-9,30.0,17.9,7.9,8.6,-36.6,-99.9,56,26,31,30.44,30.18,3,1,8,0.00
2013-2-10,35.1,28.6,12.6,19.6,-1.4,-99.9,54,36,20,30.39,29.94,6,3,11,0.00
2013-2-11,44.6,36.7,33.8,33.8,20.7,10.6,74,54,28,29.94,29.56,9,4,22,0.00
2013-2-12,38.7,33.9,31.5,16.7,8.5,-0.9,48,34,19,30.00,29.71,7,3,17,0.00
2013-2-13,38.5,31.8,25.3,9.1,3.1,-2.6,39,30,19,29.91,29.76,4,0,9,0.00
2013-2-14,36.1,32.3,25.0,30.2,15.8,3.4,81,52,32,29.91,29.76,6,2,13,0.00
2013-2-15,35.4,30.6,21.2,30.4,7.2,-9.8,82,39,18,30.09,29.71,7,4,15,0.00
2013-2-16,33.1,23.6,17.6,9.1,3.0,-2.4,45,41,31,30.09,29.97,4,0,7,0.00
2013-2-17,20.8,13.4,5.5,-1.5,-63.0,-99.9,40,10,20,30.27,29.97,3,2,10,0.00
2013-2-18,33.6,21.3,7.2,10.2,-37.7,-99.9,40,17,20,30.27,29.88,5,2,10,0.00
2013-2-19,38.7,33.6,25.0,32.7,16.8,1.4,81,51,33,29.88,29.59,10,6,20,0.00
2013-2-20,28.4,23.0,19.9,6.6,-4.1,-9.4,47,30,21,30.09,29.74,5,4,14,0.00
2013-2-21,30.9,20.1,9.7,-1.3,-25.7,-99.9,36,22,18,30.41,30.06,3,2,10,0.00
2013-2-22,34.3,28.2,16.7,27.0,11.5,-5.4,74,50,36,30.39,29.97,7,4,14,0.00
2013-2-23,38.5,34.8,28.9,27.9,15.9,1.0,74,48,21,29.97,29.85,6,2,14,0.00
2013-2-24,38.7,33.3,30.0,14.5,10.3,7.3,51,38,29,30.12,29.85,3,1,8,0.00
2013-2-25,39.9,34.9,32.5,13.1,8.9,2.7,41,33,21,30.24,30.09,4,0,7,0.00
2013-2-26,41.0,36.1,32.7,26.2,12.1,7.3,77,38,29,30.21,29.85,7,4,14,0.00
2013-2-27,35.2,33.8,32.7,33.8,31.8,26.8,96,93,78,29.82,29.62,6,4,14,0.00
2013-2-28,40.3,34.8,31.8,39.0,32.1,22.8,96,90,69,29.82,29.56,3,1,8,0.00
2013-3-1,35.4,29.0,21.9,22.8,5.8,-1.5,69,38,22,30.03,29.82,4,2,10,0.00
2013-3-2,32.7,24.8,18.0,1.2,-1.6,-4.4,37,31,23,30.03,29.94,2,1,8,0.00
2013-3-3,31.5,24.7,19.9,0.9,-3.1,-7.8,37,29,20,29.97,29.88,2,1,10,0.00
2013-3-4,35.8,26.1,19.6,1.8,-1.9,-6.3,43,30,17,30.12,29.94,3,1,8,0.00
2013-3-5,34.0,27.7,19.8,10.8,1.9,-4.4,43,33,20,30.15,30.00,6,2,11,0.00
2013-3-6,43.3,35.9,28.8,14.9,9.7,3.6,45,34,20,30.21,30.00,4,1,8,0.00
2013-3-7,42.8,36.5,34.2,21.2,15.3,11.3,53,42,30,30.33,30.18,2,0,6,0.00
2013-3-8,48.6,38.3,32.2,22.1,11.2,-0.8,56,36,14,30.44,30.30,1,0,6,0.00
2013-3-9,44.8,36.8,28.4,19.8,10.7,-1.1,53,37,17,30.41,30.21,4,1,8,0.00
2013-3-10,56.8,44.8,36.7,18.9,10.6,2.1,45,28,12,30.21,29.97,4,1,6,0.00
2013-3-11,48.0,44.7,42.4,31.3,19.3,2.7,62,38,17,29.97,29.65,5,1,10,0.00
2013-3-12,43.3,38.2,34.5,34.9,19.3,11.1,76,47,33,29.91,29.68,7,4,14,0.00
2013-3-13,38.8,32.3,22.6,18.1,5.1,-12.8,52,33,17,30.00,29.82,5,2,12,0.00
2013-3-14,37.4,26.9,20.1,-3.3,-8.2,-13.2,33,21,15,30.12,30.00,4,2,11,0.00
2013-3-15,46.8,34.4,25.7,9.7,-1.5,-11.0,33,22,14,30.06,29.74,5,2,11,0.00
2013-3-16,30.2,26.8,23.2,1.6,-7.0,-12.8,33,22,18,30.03,29.88,3,0,6,0.00
2013-3-17,37.0,27.3,21.2,-0.4,-8.0,-16.2,33,21,16,30.36,30.03,2,0,7,0.00
2013-3-18,33.8,28.7,19.8,26.4,-1.0,-17.9,78,31,17,30.33,29.71,8,5,15,0.00
2013-3-19,35.8,32.2,25.3,32.2,16.7,0.9,87,56,32,29.85,29.59,9,4,17,0.00
2013-3-20,36.3,28.7,23.4,7.9,-0.1,-10.3,47,30,17,29.85,29.79,4,2,11,0.00
2013-3-21,34.7,26.9,20.3,12.4,2.1,-4.7,43,34,20,29.82,29.68,6,2,11,0.00
2013-3-22,41.4,32.1,26.1,9.3,5.3,-1.3,46,33,18,29.94,29.74,3,2,9,0.00
2013-3-23,47.1,35.2,27.5,11.8,4.0,-4.5,48,29,14,30.06,29.91,3,1,9,0.00
2013-3-24,45.7,33.8,24.6,10.6,2.2,-4.7,43,27,15,30.06,29.79,3,0,8,0.00
2013-3-25,45.1,38.3,33.1,7.5,3.1,-1.7,31,23,15,29.79,29.71,5,2,10,0.00
2013-3-26,56.3,43.4,35.6,9.1,3.9,-3.1,30,20,12,30.00,29.79,3,1,8,0.00
2013-3-27,50.5,40.0,34.5,16.2,8.0,0.5,42,28,14,30.12,29.94,3,1,10,0.00
2013-3-28,51.1,41.7,34.2,17.6,9.3,-0.9,44,29,14,30.24,30.06,2,0,6,0.00
2013-3-29,55.2,43.5,36.7,10.6,5.1,-4.7,31,21,13,30.24,30.15,4,0,8,0.00
2013-3-30,53.1,41.3,30.6,10.6,2.2,-6.3,34,20,13,30.24,30.03,5,2,10,0.00
2013-3-31,54.7,44.0,38.1,28.6,8.2,1.8,54,24,13,30.03,29.62,5,1,10,0.00
2013-4-1,43.9,35.6,26.2,29.1,1.9,-8.9,56,25,16,30.00,29.59,5,3,13,0.00
2013-4-2,39.6,30.1,23.2,0.7,-4.1,-10.3,33,23,16,30.15,29.97,5,3,13,0.00
2013-4-3,44.2,33.2,23.9,-0.4,-4.0,-8.5,32,20,15,30.39,30.12,3,2,11,0.00
2013-4-4,48.0,37.6,26.1,2.1,-1.9,-7.4,31,19,14,30.36,29.91,8,4,18,0.00
2013-4-5,51.4,40.0,29.5,10.4,0.6,-8.7,30,19,14,30.21,29.91,4,2,10,0.00
2013-4-6,43.3,34.4,24.4,8.6,-2.4,-9.0,32,21,15,30.33,30.03,6,2,10,0.00
2013-4-7,62.8,47.7,37.0,17.4,11.0,3.6,39,24,13,30.06,29.68,8,4,17,0.00
2013-4-8,48.7,43.0,38.8,35.4,16.3,4.5,80,38,19,30.15,29.82,7,2,12,0.00
2013-4-9,56.3,47.3,40.1,42.1,33.0,19.9,85,62,25,30.15,29.82,4,1,9,0.00
2013-4-10,46.4,43.5,40.6,40.5,36.1,28.2,81,75,56,30.12,29.94,3,0,8,0.00
2013-4-11,40.5,35.3,31.8,32.4,13.4,-2.4,73,43,20,30.18,29.94,7,3,14,0.00
2013-4-12,42.1,37.0,32.7,40.3,30.2,9.1,93,79,34,29.97,29.56,9,3,17,0.00
2013-4-13,46.6,40.2,37.9,34.3,25.5,13.6,84,57,29,29.94,29.74,6,3,12,0.00
2013-4-14,49.1,40.2,33.1,16.3,8.6,1.0,44,28,15,30.21,29.94,4,2,10,0.00
2013-4-15,51.6,45.5,37.6,24.1,15.2,9.3,41,30,19,30.18,30.03,6,3,11,0.00
2013-4-16,61.0,53.4,43.9,39.9,22.4,2.5,51,31,14,30.27,29.97,8,3,16,0.00
2013-4-17,53.1,45.3,36.3,13.8,6.7,0.5,34,21,13,30.41,30.24,4,2,8,0.00
2013-4-18,66.7,52.1,39.6,40.5,25.4,12.9,66,37,23,30.27,29.68,6,4,15,0.00
2013-4-19,61.0,53.5,42.8,46.9,29.3,4.8,67,42,16,29.76,29.41,10,5,19,0.00
2013-4-20,42.8,38.0,31.3,16.3,3.4,-6.3,44,24,16,30.44,29.74,8,4,17,0.00
2013-4-21,44.2,36.3,28.0,7.5,-0.7,-6.2,32,21,15,30.68,30.44,4,2,10,0.00
2013-4-22,52.5,43.7,35.4,15.8,6.7,-0.2,40,23,13,30.59,30.33,5,4,10,0.00
2013-4-23,52.7,46.4,38.3,17.2,10.0,4.1,35,23,16,30.33,29.91,5,3,11,0.00
2013-4-24,53.6,47.2,37.8,36.0,22.7,12.7,64,40,21,30.03,29.68,4,1,13,0.00
2013-4-25,52.5,42.3,33.3,23.2,15.6,4.8,52,36,16,30.30,30.03,8,3,17,0.00
2013-4-26,55.9,45.7,34.0,23.0,10.1,-0.2,54,28,12,30.50,30.33,6,2,13,0.00
2013-4-27,63.5,49.7,40.8,14.7,4.9,-0.9,29,16,11,30.41,30.24,4,2,8,0.00
2013-4-28,66.7,54.5,46.9,36.1,15.1,4.6,59,23,10,30.24,30.03,5,3,14,0.00
2013-4-29,52.5,49.4,45.5,44.4,39.9,31.3,84,70,46,30.06,29.97,3,2,6,0.00
2013-4-30,68.7,57.1,50.0,44.2,35.5,27.9,69,48,23,30.21,30.06,5,1,9,0.00
2013-5-1,69.6,62.2,53.4,33.3,21.8,6.1,44,24,10,30.39,30.21,4,2,8,0.00
2013-5-2,71.8,61.7,0.0,21.4,10.8,3.7,28,14,10,30.41,30.27,4,2,8,0.00
2013-5-3,70.7,62.4,53.6,15.6,8.8,3.7,15,12,10,30.33,30.24,5,2,9,0.00
2013-5-4,69.4,61.0,50.0,24.3,11.6,5.0,32,15,10,30.30,30.21,5,2,9,0.00
2013-5-5,76.1,64.5,51.3,16.9,11.3,4.3,21,12,10,30.24,30.12,4,2,10,0.00
2013-5-6,71.8,62.1,51.3,16.2,9.5,3.7,21,13,10,30.18,30.06,3,1,8,0.00
2013-5-7,77.7,63.9,49.8,16.9,9.3,2.5,15,12,10,30.15,30.06,3,1,6,0.00
2013-5-8,73.4,63.0,57.9,40.8,20.9,6.3,46,22,11,30.09,30.00,4,1,8,0.00
2013-5-9,74.3,65.7,60.3,45.5,34.5,22.3,49,33,16,30.00,29.94,5,1,9,0.00
2013-5-10,60.3,54.9,51.3,52.2,39.2,21.6,85,60,24,30.00,29.74,5,1,10,0.00
2013-5-11,60.4,52.7,46.4,51.8,35.1,23.2,85,55,25,29.79,29.71,8,2,15,0.00
2013-5-12,53.2,44.2,37.8,35.4,14.3,1.9,57,31,13,29.94,29.71,7,4,19,0.00
2013-5-13,57.7,45.7,35.6,18.0,6.6,-1.8,43,22,12,30.18,29.94,4,2,10,0.00
2013-5-14,56.8,47.1,39.0,15.3,9.4,-2.4,30,22,12,30.18,29.97,4,2,8,0.00
2013-5-15,78.6,57.4,42.4,35.4,19.9,10.0,63,28,10,29.97,29.59,5,2,12,0.00
2013-5-16,79.2,64.3,51.4,22.3,12.5,3.7,28,14,10,30.06,29.76,4,2,10,0.00
2013-5-17,65.7,56.9,46.6,23.9,11.4,3.7,35,17,10,30.27,30.06,4,1,9,0.00
2013-5-18,68.5,59.0,48.4,21.0,9.7,5.4,33,15,10,30.30,30.18,4,2,9,0.00
2013-5-19,70.9,61.2,52.9,40.8,28.0,5.9,49,30,11,30.18,30.03,5,3,9,0.00
2013-5-20,80.8,66.7,57.6,51.3,39.3,25.3,62,39,15,30.06,29.94,4,1,8,0.00
2013-5-21,71.4,64.8,0.0,61.2,47.2,34.5,82,55,27,29.94,29.82,5,2,9,0.00
2013-5-22,76.3,63.8,55.9,55.0,43.8,31.8,76,51,22,29.85,29.71,3,1,6,0.00
2013-5-23,77.0,62.2,44.2,50.9,33.1,16.0,62,37,14,30.03,29.74,6,3,12,0.00
2013-5-24,62.4,49.6,41.4,25.7,12.9,0.7,50,26,11,30.27,30.03,4,3,10,0.00
2013-5-25,67.3,54.0,40.6,26.1,10.2,2.5,42,20,10,30.30,30.21,4,2,10,0.00
2013-5-26,70.7,57.4,44.1,22.1,9.6,1.9,33,16,10,30.27,30.21,3,1,8,0.00
2013-5-27,70.9,60.3,45.3,22.5,10.1,2.5,30,14,10,30.30,30.15,6,2,12,0.00
2013-5-28,57.7,53.4,49.3,52.0,31.0,3.7,85,51,12,30.18,29.97,4,2,8,0.00
2013-5-29,78.4,67.4,54.9,64.6,54.1,41.0,91,67,28,30.03,29.88,6,2,13,0.00
2013-5-30,83.7,74.2,65.1,59.2,43.1,34.0,71,37,19,30.15,30.03,6,2,12,0.00
2013-5-31,83.3,74.6,65.7,54.3,40.7,22.3,61,32,12,30.09,29.97,9,3,24,0.00
2013-6-1,81.3,71.3,63.1,60.4,47.8,36.9,79,48,23,29.97,29.82,7,2,14,0.00
2013-6-2,74.1,65.7,53.4,62.6,47.4,27.1,85,55,31,29.97,29.71,7,3,15,0.00
2013-6-3,69.3,59.0,47.7,36.3,18.3,8.4,49,23,12,30.06,29.97,3,1,12,0.00
2013-6-4,74.1,62.2,48.7,26.1,13.0,5.9,33,16,10,30.21,30.06,3,0,9,0.00
2013-6-5,65.8,60.6,56.8,13.1,7.2,5.0,15,12,10,30.27,30.12,5,2,9,0.00
2013-6-6,60.6,55.4,50.2,51.1,30.7,8.4,92,48,14,30.15,29.91,4,3,9,0.00
2013-6-7,63.5,58.6,53.6,61.2,52.1,45.7,93,80,56,29.91,29.88,1,0,4,0.00
2013-6-8,69.4,62.5,58.5,47.7,39.9,27.9,65,46,23,30.12,29.88,5,1,11,0.00
2013-6-9,73.2,66.0,55.0,45.9,22.6,11.7,55,22,11,30.24,30.12,4,1,9,0.00
2013-6-10,62.1,59.1,56.7,57.6,43.3,19.2,96,63,19,30.18,29.76,5,4,10,0.00
2013-6-11,74.3,66.0,58.8,69.8,56.2,33.8,97,77,28,29.91,29.71,3,1,10,0.00
2013-6-12,72.7,66.2,58.3,54.7,29.0,11.8,65,28,11,30.00,29.82,4,1,8,0.00
2013-6-13,73.8,63.9,60.3,48.4,36.2,18.9,64,38,16,29.88,29.65,4,1,9,0.00
2013-6-14,78.3,67.3,58.5,58.5,33.9,11.1,77,37,13,30.03,29.85,3,1,9,0.00
2013-6-15,73.9,66.7,54.1,30.4,18.2,10.4,32,17,11,30.09,29.97,6,2,13,0.00
2013-6-16,79.7,69.0,60.3,65.3,43.6,12.0,80,44,12,29.97,29.76,4,1,9,0.00
2013-6-17,81.7,71.7,62.8,50.0,31.0,18.5,51,25,12,30.00,29.85,3,0,8,0.00
2013-6-18,70.2,63.8,56.7,39.2,23.4,12.0,51,24,12,30.09,29.97,4,1,9,0.00
2013-6-19,66.6,61.5,54.5,22.1,11.6,7.0,25,14,10,30.21,30.09,4,1,8,0.00
2013-6-20,71.1,63.8,52.5,42.4,21.1,12.0,49,22,12,30.27,30.21,3,1,7,0.00
2013-6-21,79.0,68.4,57.2,41.2,22.4,12.2,45,20,10,30.30,30.18,4,1,7,0.00
2013-6-22,77.5,70.6,63.7,66.2,48.9,32.4,72,48,23,30.15,30.03,3,0,8,0.00
2013-6-23,87.3,76.7,66.4,60.8,47.1,25.7,72,41,11,30.12,30.00,7,2,13,0.00
2013-6-24,88.0,80.3,71.2,51.8,41.1,28.0,45,26,13,30.06,29.94,6,3,13,0.00
2013-6-25,84.2,74.9,71.2,64.9,50.7,37.8,67,44,25,29.97,29.82,6,2,11,0.00
2013-6-26,87.1,76.9,68.4,61.9,47.2,35.8,67,39,18,29.88,29.82,7,2,13,0.00
2013-6-27,76.3,72.0,68.5,56.5,47.0,39.4,64,42,28,29.85,29.71,2,0,5,0.00
2013-6-28,70.0,66.7,63.5,62.4,54.6,46.2,91,67,44,29.71,29.59,3,1,6,0.00
2013-6-29,75.7,68.6,63.1,63.9,48.9,33.3,87,55,23,29.76,29.56,5,1,10,0.00
2013-6-30,77.2,69.7,61.2,51.6,35.3,19.6,63,32,13,30.00,29.76,3,1,7,0.00
2013-7-1,78.6,70.3,64.6,27.1,15.5,12.0,22,12,10,30.15,30.00,3,0,8,0.00
2013-7-2,72.7,67.9,63.5,44.8,29.6,17.1,45,25,14,30.15,30.09,4,1,7,0.00
2013-7-3,79.2,71.1,64.8,55.4,46.1,37.9,68,43,23,30.21,30.09,3,1,6,0.00
2013-7-4,80.8,74.3,68.7,63.7,54.0,43.0,76,52,30,30.21,30.12,6,2,11,0.00
2013-7-5,79.0,73.3,70.2,64.4,56.3,46.2,78,56,34,30.18,30.09,4,1,8,0.00
2013-7-6,85.1,74.9,67.5,72.3,54.9,37.2,88,57,19,30.18,30.06,4,1,8,0.00
2013-7-7,81.9,74.4,70.7,70.0,58.2,46.0,83,60,30,30.09,30.00,8,2,15,0.00
2013-7-8,85.3,74.6,69.3,73.0,59.7,38.5,92,66,20,30.09,30.00,4,1,11,0.00
2013-7-9,76.6,72.4,68.9,71.2,62.7,52.3,91,73,47,30.09,29.94,2,0,5,0.00
2013-7-10,72.5,72.0,70.9,64.6,64.0,62.2,79,76,72,29.94,29.85,3,1,10,0.00